sensor_id;sensor_type;location;lat;lon;timestamp;temperature;humidity
46440;DHT22;32138;50.966;6.968;2023-09-19T00:01:06;18.00;99.90
46440;DHT22;32138;50.966;6.968;2023-09-19T00:02:42;18.20;99.90
46440;DHT22;32138;50.966;6.968;2023-09-19T00:04:12;18.20;99.90
46440;DHT22;32138;50.966;6.968;2023-09-19T00:05:45;18.10;99.90
46440;DHT22;32138;50.966;6.968;2023-09-19T00:07:15;18.10;99.90
46440;DHT22;32138;50.966;6.968;2023-09-19T00:08:47;18.10;99.90
46440;DHT22;32138;50.966;6.968;2023-09-19T00:10:18;18.00;99.90
46440;DHT22;32138;50.966;6.968;2023-09-19T00:11:49;18.10;99.90
46440;DHT22;32138;50.966;6.968;2023-09-19T00:13:21;18.00;99.90
46440;DHT22;32138;50.966;6.968;2023-09-19T00:14:52;18.00;99.90
46440;DHT22;32138;50.966;6.968;2023-09-19T00:16:23;18.00;99.90
46440;DHT22;32138;50.966;6.968;2023-09-19T00:17:57;17.90;99.90
46440;DHT22;32138;50.966;6.968;2023-09-19T00:19:29;17.90;99.90
46440;DHT22;32138;50.966;6.968;2023-09-19T00:21:00;17.90;99.90
46440;DHT22;32138;50.966;6.968;2023-09-19T00:22:31;17.90;99.90
46440;DHT22;32138;50.966;6.968;2023-09-19T00:24:02;17.90;99.90
46440;DHT22;32138;50.966;6.968;2023-09-19T00:25:35;17.90;99.90
46440;DHT22;32138;50.966;6.968;2023-09-19T00:27:07;18.00;99.90
46440;DHT22;32138;50.966;6.968;2023-09-19T00:28:38;17.90;99.90
46440;DHT22;32138;50.966;6.968;2023-09-19T00:30:10;18.00;99.90
46440;DHT22;32138;50.966;6.968;2023-09-19T00:31:46;17.90;99.90
46440;DHT22;32138;50.966;6.968;2023-09-19T00:33:17;17.90;99.90
46440;DHT22;32138;50.966;6.968;2023-09-19T00:34:49;18.10;99.90
46440;DHT22;32138;50.966;6.968;2023-09-19T00:36:20;17.90;99.90
46440;DHT22;32138;50.966;6.968;2023-09-19T00:37:51;18.00;99.90
46440;DHT22;32138;50.966;6.968;2023-09-19T00:39:22;17.90;99.90
46440;DHT22;32138;50.966;6.968;2023-09-19T00:40:55;17.90;99.90
46440;DHT22;32138;50.966;6.968;2023-09-19T00:42:27;17.80;99.90
46440;DHT22;32138;50.966;6.968;2023-09-19T00:43:58;17.80;99.90
46440;DHT22;32138;50.966;6.968;2023-09-19T00:45:33;17.80;99.90
46440;DHT22;32138;50.966;6.968;2023-09-19T00:47:08;17.90;99.90
46440;DHT22;32138;50.966;6.968;2023-09-19T00:48:41;17.90;99.90
46440;DHT22;32138;50.966;6.968;2023-09-19T00:50:16;17.90;99.90
46440;DHT22;32138;50.966;6.968;2023-09-19T00:51:49;17.80;99.90
46440;DHT22;32138;50.966;6.968;2023-09-19T00:53:22;17.90;99.90
46440;DHT22;32138;50.966;6.968;2023-09-19T00:54:56;17.80;99.90
46440;DHT22;32138;50.966;6.968;2023-09-19T00:56:27;17.70;99.90
46440;DHT22;32138;50.966;6.968;2023-09-19T00:57:57;17.80;99.90
46440;DHT22;32138;50.966;6.968;2023-09-19T00:59:29;17.70;99.90
46440;DHT22;32138;50.966;6.968;2023-09-19T01:01:01;17.80;99.90
46440;DHT22;32138;50.966;6.968;2023-09-19T01:02:32;17.90;99.90
46440;DHT22;32138;50.966;6.968;2023-09-19T01:04:04;18.10;99.90
46440;DHT22;32138;50.966;6.968;2023-09-19T01:05:35;18.20;99.90
46440;DHT22;32138;50.966;6.968;2023-09-19T01:07:07;18.20;99.90
46440;DHT22;32138;50.966;6.968;2023-09-19T01:08:38;18.10;99.90
46440;DHT22;32138;50.966;6.968;2023-09-19T01:10:12;18.00;99.90
46440;DHT22;32138;50.966;6.968;2023-09-19T01:11:49;18.00;99.90
46440;DHT22;32138;50.966;6.968;2023-09-19T01:14:54;18.00;99.90
46440;DHT22;32138;50.966;6.968;2023-09-19T01:30:09;17.90;99.90
46440;DHT22;32138;50.966;6.968;2023-09-19T01:31:42;17.90;99.90
46440;DHT22;32138;50.966;6.968;2023-09-19T01:33:14;18.00;99.90
46440;DHT22;32138;50.966;6.968;2023-09-19T01:34:55;18.00;99.90
46440;DHT22;32138;50.966;6.968;2023-09-19T01:36:36;17.90;99.90
46440;DHT22;32138;50.966;6.968;2023-09-19T01:38:08;18.00;99.90
46440;DHT22;32138;50.966;6.968;2023-09-19T01:39:42;17.90;99.90
46440;DHT22;32138;50.966;6.968;2023-09-19T01:41:19;17.90;99.90
46440;DHT22;32138;50.966;6.968;2023-09-19T01:43:04;17.90;99.90
46440;DHT22;32138;50.966;6.968;2023-09-19T01:44:40;17.90;99.90
46440;DHT22;32138;50.966;6.968;2023-09-19T01:46:35;17.80;99.90
46440;DHT22;32138;50.966;6.968;2023-09-19T01:48:27;17.90;99.90
46440;DHT22;32138;50.966;6.968;2023-09-19T01:50:34;18.00;99.90
46440;DHT22;32138;50.966;6.968;2023-09-19T01:52:14;18.00;99.90
46440;DHT22;32138;50.966;6.968;2023-09-19T01:53:57;17.90;99.90
46440;DHT22;32138;50.966;6.968;2023-09-19T01:55:37;18.00;99.90
46440;DHT22;32138;50.966;6.968;2023-09-19T01:57:27;18.00;99.90
46440;DHT22;32138;50.966;6.968;2023-09-19T01:59:06;18.10;99.90
46440;DHT22;32138;50.966;6.968;2023-09-19T02:00:41;18.10;99.90
46440;DHT22;32138;50.966;6.968;2023-09-19T02:02:14;18.10;99.90
46440;DHT22;32138;50.966;6.968;2023-09-19T02:03:47;18.20;99.90
46440;DHT22;32138;50.966;6.968;2023-09-19T02:05:24;18.30;99.90
46440;DHT22;32138;50.966;6.968;2023-09-19T02:06:56;18.00;99.90
46440;DHT22;32138;50.966;6.968;2023-09-19T02:08:27;17.90;99.90
46440;DHT22;32138;50.966;6.968;2023-09-19T02:09:58;17.90;99.90
46440;DHT22;32138;50.966;6.968;2023-09-19T02:11:33;18.00;99.90
46440;DHT22;32138;50.966;6.968;2023-09-19T02:13:04;18.00;99.90
46440;DHT22;32138;50.966;6.968;2023-09-19T02:14:36;17.90;99.90
46440;DHT22;32138;50.966;6.968;2023-09-19T02:16:07;17.80;99.90
46440;DHT22;32138;50.966;6.968;2023-09-19T02:17:39;17.80;99.90
46440;DHT22;32138;50.966;6.968;2023-09-19T02:19:10;17.80;99.90
46440;DHT22;32138;50.966;6.968;2023-09-19T02:20:41;17.80;99.90
46440;DHT22;32138;50.966;6.968;2023-09-19T02:22:12;17.90;99.90
46440;DHT22;32138;50.966;6.968;2023-09-19T02:23:44;17.90;99.90
46440;DHT22;32138;50.966;6.968;2023-09-19T02:25:15;18.00;99.90
46440;DHT22;32138;50.966;6.968;2023-09-19T02:26:47;18.10;99.90
46440;DHT22;32138;50.966;6.968;2023-09-19T02:28:17;18.00;99.90
46440;DHT22;32138;50.966;6.968;2023-09-19T02:29:48;17.90;99.90
46440;DHT22;32138;50.966;6.968;2023-09-19T02:31:19;17.80;99.90
46440;DHT22;32138;50.966;6.968;2023-09-19T02:32:50;17.70;99.90
46440;DHT22;32138;50.966;6.968;2023-09-19T02:34:22;17.90;99.90
46440;DHT22;32138;50.966;6.968;2023-09-19T02:35:56;17.90;99.90
46440;DHT22;32138;50.966;6.968;2023-09-19T02:37:31;17.90;99.90
46440;DHT22;32138;50.966;6.968;2023-09-19T02:39:03;17.80;99.90
46440;DHT22;32138;50.966;6.968;2023-09-19T02:40:36;17.80;99.90
46440;DHT22;32138;50.966;6.968;2023-09-19T02:42:07;17.70;99.90
46440;DHT22;32138;50.966;6.968;2023-09-19T02:43:37;17.60;99.90
46440;DHT22;32138;50.966;6.968;2023-09-19T02:45:09;17.70;99.90
46440;DHT22;32138;50.966;6.968;2023-09-19T02:46:40;17.60;99.90
46440;DHT22;32138;50.966;6.968;2023-09-19T02:48:10;17.60;99.90
46440;DHT22;32138;50.966;6.968;2023-09-19T02:49:42;17.50;99.90
46440;DHT22;32138;50.966;6.968;2023-09-19T02:51:13;17.60;99.90
46440;DHT22;32138;50.966;6.968;2023-09-19T02:52:45;17.60;99.90
46440;DHT22;32138;50.966;6.968;2023-09-19T02:54:19;17.50;99.90
46440;DHT22;32138;50.966;6.968;2023-09-19T02:55:50;17.40;99.90
46440;DHT22;32138;50.966;6.968;2023-09-19T02:57:22;17.30;99.90
46440;DHT22;32138;50.966;6.968;2023-09-19T02:58:55;17.40;99.90
46440;DHT22;32138;50.966;6.968;2023-09-19T03:00:26;17.60;99.90
46440;DHT22;32138;50.966;6.968;2023-09-19T03:01:57;17.50;99.90
46440;DHT22;32138;50.966;6.968;2023-09-19T03:03:29;17.50;99.90
46440;DHT22;32138;50.966;6.968;2023-09-19T03:05:00;17.50;99.90
46440;DHT22;32138;50.966;6.968;2023-09-19T03:06:33;17.40;99.90
46440;DHT22;32138;50.966;6.968;2023-09-19T03:08:04;17.30;99.90
46440;DHT22;32138;50.966;6.968;2023-09-19T03:09:35;17.20;99.90
46440;DHT22;32138;50.966;6.968;2023-09-19T03:11:06;17.30;99.90
46440;DHT22;32138;50.966;6.968;2023-09-19T03:12:39;17.40;99.90
46440;DHT22;32138;50.966;6.968;2023-09-19T03:14:10;17.40;99.90
46440;DHT22;32138;50.966;6.968;2023-09-19T03:15:43;17.50;99.90
46440;DHT22;32138;50.966;6.968;2023-09-19T03:17:17;17.40;99.90
46440;DHT22;32138;50.966;6.968;2023-09-19T03:18:50;17.40;99.90
46440;DHT22;32138;50.966;6.968;2023-09-19T03:20:21;17.40;99.90
46440;DHT22;32138;50.966;6.968;2023-09-19T03:21:52;17.40;99.90
46440;DHT22;32138;50.966;6.968;2023-09-19T03:23:23;17.40;99.90
46440;DHT22;32138;50.966;6.968;2023-09-19T03:24:54;17.40;99.90
46440;DHT22;32138;50.966;6.968;2023-09-19T03:26:25;17.20;99.90
46440;DHT22;32138;50.966;6.968;2023-09-19T03:27:57;17.10;99.90
46440;DHT22;32138;50.966;6.968;2023-09-19T03:29:28;17.20;99.90
46440;DHT22;32138;50.966;6.968;2023-09-19T03:31:05;17.00;99.90
46440;DHT22;32138;50.966;6.968;2023-09-19T03:32:36;17.20;99.90
46440;DHT22;32138;50.966;6.968;2023-09-19T03:34:07;17.20;99.90
46440;DHT22;32138;50.966;6.968;2023-09-19T03:35:39;17.20;99.90
46440;DHT22;32138;50.966;6.968;2023-09-19T03:37:10;17.20;99.90
46440;DHT22;32138;50.966;6.968;2023-09-19T03:38:41;17.20;99.90
46440;DHT22;32138;50.966;6.968;2023-09-19T03:40:12;17.20;99.90
46440;DHT22;32138;50.966;6.968;2023-09-19T03:41:43;17.00;99.90
46440;DHT22;32138;50.966;6.968;2023-09-19T03:43:14;17.20;99.90
46440;DHT22;32138;50.966;6.968;2023-09-19T03:44:45;17.20;99.90
46440;DHT22;32138;50.966;6.968;2023-09-19T03:46:16;17.20;99.90
46440;DHT22;32138;50.966;6.968;2023-09-19T03:47:46;17.20;99.90
46440;DHT22;32138;50.966;6.968;2023-09-19T03:49:18;17.30;99.90
46440;DHT22;32138;50.966;6.968;2023-09-19T03:50:49;17.20;99.90
46440;DHT22;32138;50.966;6.968;2023-09-19T03:52:20;17.20;99.90
46440;DHT22;32138;50.966;6.968;2023-09-19T03:53:51;17.20;99.90
46440;DHT22;32138;50.966;6.968;2023-09-19T03:55:22;17.20;99.90
46440;DHT22;32138;50.966;6.968;2023-09-19T03:56:52;17.20;99.90
46440;DHT22;32138;50.966;6.968;2023-09-19T03:58:23;17.20;99.90
46440;DHT22;32138;50.966;6.968;2023-09-19T03:59:54;17.20;99.90
46440;DHT22;32138;50.966;6.968;2023-09-19T04:01:29;17.20;99.90
46440;DHT22;32138;50.966;6.968;2023-09-19T04:03:02;17.20;99.90
46440;DHT22;32138;50.966;6.968;2023-09-19T04:04:36;17.30;99.90
46440;DHT22;32138;50.966;6.968;2023-09-19T04:06:07;17.20;99.90
46440;DHT22;32138;50.966;6.968;2023-09-19T04:07:37;16.90;99.90
46440;DHT22;32138;50.966;6.968;2023-09-19T04:09:08;17.00;99.90
46440;DHT22;32138;50.966;6.968;2023-09-19T04:10:42;16.90;99.90
46440;DHT22;32138;50.966;6.968;2023-09-19T04:12:14;16.80;99.90
46440;DHT22;32138;50.966;6.968;2023-09-19T04:13:47;16.70;99.90
46440;DHT22;32138;50.966;6.968;2023-09-19T04:15:18;16.70;99.90
46440;DHT22;32138;50.966;6.968;2023-09-19T04:16:48;16.90;99.90
46440;DHT22;32138;50.966;6.968;2023-09-19T04:18:19;17.00;99.90
46440;DHT22;32138;50.966;6.968;2023-09-19T04:19:50;17.00;99.90
46440;DHT22;32138;50.966;6.968;2023-09-19T04:21:21;16.90;99.90
46440;DHT22;32138;50.966;6.968;2023-09-19T04:22:52;17.00;99.90
46440;DHT22;32138;50.966;6.968;2023-09-19T04:24:23;16.90;99.90
46440;DHT22;32138;50.966;6.968;2023-09-19T04:25:54;16.90;99.90
46440;DHT22;32138;50.966;6.968;2023-09-19T04:27:24;16.70;99.90
46440;DHT22;32138;50.966;6.968;2023-09-19T04:28:55;16.80;99.90
46440;DHT22;32138;50.966;6.968;2023-09-19T04:30:26;16.90;99.90
46440;DHT22;32138;50.966;6.968;2023-09-19T04:31:57;16.90;99.90
46440;DHT22;32138;50.966;6.968;2023-09-19T04:33:28;16.80;99.90
46440;DHT22;32138;50.966;6.968;2023-09-19T04:34:58;16.80;99.90
46440;DHT22;32138;50.966;6.968;2023-09-19T04:36:32;16.80;99.90
46440;DHT22;32138;50.966;6.968;2023-09-19T04:38:02;16.80;99.90
46440;DHT22;32138;50.966;6.968;2023-09-19T04:39:33;16.80;99.90
46440;DHT22;32138;50.966;6.968;2023-09-19T04:41:04;16.80;99.90
46440;DHT22;32138;50.966;6.968;2023-09-19T04:42:35;16.60;99.90
46440;DHT22;32138;50.966;6.968;2023-09-19T04:44:06;16.70;99.90
46440;DHT22;32138;50.966;6.968;2023-09-19T04:45:39;16.70;99.90
46440;DHT22;32138;50.966;6.968;2023-09-19T04:47:10;16.80;99.90
46440;DHT22;32138;50.966;6.968;2023-09-19T04:48:42;16.80;99.90
46440;DHT22;32138;50.966;6.968;2023-09-19T04:50:13;16.60;99.90
46440;DHT22;32138;50.966;6.968;2023-09-19T04:51:44;16.60;99.90
46440;DHT22;32138;50.966;6.968;2023-09-19T04:53:18;16.60;99.90
46440;DHT22;32138;50.966;6.968;2023-09-19T04:54:50;16.80;99.90
46440;DHT22;32138;50.966;6.968;2023-09-19T04:56:21;16.70;99.90
46440;DHT22;32138;50.966;6.968;2023-09-19T04:57:53;16.80;99.90
46440;DHT22;32138;50.966;6.968;2023-09-19T04:59:25;16.70;99.90
46440;DHT22;32138;50.966;6.968;2023-09-19T05:00:56;16.60;99.90
46440;DHT22;32138;50.966;6.968;2023-09-19T05:02:29;16.60;99.90
46440;DHT22;32138;50.966;6.968;2023-09-19T05:04:01;16.60;99.90
46440;DHT22;32138;50.966;6.968;2023-09-19T05:05:34;16.70;99.90
46440;DHT22;32138;50.966;6.968;2023-09-19T05:07:05;16.70;99.90
46440;DHT22;32138;50.966;6.968;2023-09-19T05:08:36;16.80;99.90
46440;DHT22;32138;50.966;6.968;2023-09-19T05:10:07;16.80;99.90
46440;DHT22;32138;50.966;6.968;2023-09-19T05:11:38;16.70;99.90
46440;DHT22;32138;50.966;6.968;2023-09-19T05:13:09;16.50;99.90
46440;DHT22;32138;50.966;6.968;2023-09-19T05:14:41;16.60;99.90
46440;DHT22;32138;50.966;6.968;2023-09-19T05:16:11;16.60;99.90
46440;DHT22;32138;50.966;6.968;2023-09-19T05:17:51;16.50;99.90
46440;DHT22;32138;50.966;6.968;2023-09-19T05:19:22;16.50;99.90
46440;DHT22;32138;50.966;6.968;2023-09-19T05:20:53;16.50;99.90
46440;DHT22;32138;50.966;6.968;2023-09-19T05:22:27;16.50;99.90
46440;DHT22;32138;50.966;6.968;2023-09-19T05:23:58;16.40;99.90
46440;DHT22;32138;50.966;6.968;2023-09-19T05:25:30;16.50;99.90
46440;DHT22;32138;50.966;6.968;2023-09-19T05:27:02;16.50;99.90
46440;DHT22;32138;50.966;6.968;2023-09-19T05:28:34;16.50;99.90
46440;DHT22;32138;50.966;6.968;2023-09-19T05:30:06;16.50;99.90
46440;DHT22;32138;50.966;6.968;2023-09-19T05:31:37;16.60;99.90
46440;DHT22;32138;50.966;6.968;2023-09-19T05:33:11;16.50;99.90
46440;DHT22;32138;50.966;6.968;2023-09-19T05:34:42;16.50;99.90
46440;DHT22;32138;50.966;6.968;2023-09-19T05:36:13;16.40;99.90
46440;DHT22;32138;50.966;6.968;2023-09-19T05:37:46;16.50;99.90
46440;DHT22;32138;50.966;6.968;2023-09-19T05:39:17;16.50;99.90
46440;DHT22;32138;50.966;6.968;2023-09-19T05:40:48;16.50;99.90
46440;DHT22;32138;50.966;6.968;2023-09-19T05:42:18;16.50;99.90
46440;DHT22;32138;50.966;6.968;2023-09-19T05:43:49;16.50;99.90
46440;DHT22;32138;50.966;6.968;2023-09-19T05:45:20;16.60;99.90
46440;DHT22;32138;50.966;6.968;2023-09-19T05:46:54;16.50;99.90
46440;DHT22;32138;50.966;6.968;2023-09-19T05:48:27;16.60;99.90
46440;DHT22;32138;50.966;6.968;2023-09-19T05:49:58;16.50;99.90
46440;DHT22;32138;50.966;6.968;2023-09-19T05:51:30;16.50;99.90
46440;DHT22;32138;50.966;6.968;2023-09-19T05:53:01;16.50;99.90
46440;DHT22;32138;50.966;6.968;2023-09-19T05:54:32;16.70;99.90
46440;DHT22;32138;50.966;6.968;2023-09-19T05:56:04;16.50;99.90
46440;DHT22;32138;50.966;6.968;2023-09-19T05:57:35;16.50;99.90
46440;DHT22;32138;50.966;6.968;2023-09-19T05:59:06;16.40;99.90
46440;DHT22;32138;50.966;6.968;2023-09-19T06:00:36;16.50;99.90
46440;DHT22;32138;50.966;6.968;2023-09-19T06:02:07;16.50;99.90
46440;DHT22;32138;50.966;6.968;2023-09-19T06:03:40;16.40;99.90
46440;DHT22;32138;50.966;6.968;2023-09-19T06:05:10;16.30;99.90
46440;DHT22;32138;50.966;6.968;2023-09-19T06:06:41;16.30;99.90
46440;DHT22;32138;50.966;6.968;2023-09-19T06:08:12;16.40;99.90
46440;DHT22;32138;50.966;6.968;2023-09-19T06:09:43;16.50;99.90
46440;DHT22;32138;50.966;6.968;2023-09-19T06:11:14;16.50;99.90
46440;DHT22;32138;50.966;6.968;2023-09-19T06:12:45;16.40;99.90
46440;DHT22;32138;50.966;6.968;2023-09-19T06:14:15;16.50;99.90
46440;DHT22;32138;50.966;6.968;2023-09-19T06:15:48;16.50;99.90
46440;DHT22;32138;50.966;6.968;2023-09-19T06:17:19;16.50;99.90
46440;DHT22;32138;50.966;6.968;2023-09-19T06:18:52;16.50;99.90
46440;DHT22;32138;50.966;6.968;2023-09-19T06:20:23;16.60;99.90
46440;DHT22;32138;50.966;6.968;2023-09-19T06:21:55;16.40;99.90
46440;DHT22;32138;50.966;6.968;2023-09-19T06:23:26;16.30;99.90
46440;DHT22;32138;50.966;6.968;2023-09-19T06:24:59;16.40;99.90
46440;DHT22;32138;50.966;6.968;2023-09-19T06:26:30;16.50;99.90
46440;DHT22;32138;50.966;6.968;2023-09-19T06:28:01;16.50;99.90
46440;DHT22;32138;50.966;6.968;2023-09-19T06:29:35;16.50;99.90
46440;DHT22;32138;50.966;6.968;2023-09-19T06:31:07;16.40;99.90
46440;DHT22;32138;50.966;6.968;2023-09-19T06:32:41;16.40;99.90
46440;DHT22;32138;50.966;6.968;2023-09-19T06:34:14;16.40;99.90
46440;DHT22;32138;50.966;6.968;2023-09-19T06:35:46;16.40;99.90
46440;DHT22;32138;50.966;6.968;2023-09-19T06:37:17;16.40;99.90
46440;DHT22;32138;50.966;6.968;2023-09-19T06:38:48;16.50;99.90
46440;DHT22;32138;50.966;6.968;2023-09-19T06:40:21;16.60;99.90
46440;DHT22;32138;50.966;6.968;2023-09-19T06:41:52;16.50;99.90
46440;DHT22;32138;50.966;6.968;2023-09-19T06:43:26;16.70;99.90
46440;DHT22;32138;50.966;6.968;2023-09-19T06:44:57;16.80;99.90
46440;DHT22;32138;50.966;6.968;2023-09-19T06:46:27;16.80;99.90
46440;DHT22;32138;50.966;6.968;2023-09-19T06:48:03;16.70;99.90
46440;DHT22;32138;50.966;6.968;2023-09-19T06:49:35;16.50;99.90
46440;DHT22;32138;50.966;6.968;2023-09-19T06:51:07;16.40;99.90
46440;DHT22;32138;50.966;6.968;2023-09-19T06:52:38;16.50;99.90
46440;DHT22;32138;50.966;6.968;2023-09-19T06:54:09;16.60;99.90
46440;DHT22;32138;50.966;6.968;2023-09-19T06:55:40;16.50;99.90
46440;DHT22;32138;50.966;6.968;2023-09-19T06:57:11;16.60;99.90
46440;DHT22;32138;50.966;6.968;2023-09-19T06:58:41;16.70;99.90
46440;DHT22;32138;50.966;6.968;2023-09-19T07:00:14;16.70;99.90
46440;DHT22;32138;50.966;6.968;2023-09-19T07:01:48;16.70;99.90
46440;DHT22;32138;50.966;6.968;2023-09-19T07:03:21;16.80;99.90
46440;DHT22;32138;50.966;6.968;2023-09-19T07:04:55;16.80;99.90
46440;DHT22;32138;50.966;6.968;2023-09-19T07:06:27;16.70;99.90
46440;DHT22;32138;50.966;6.968;2023-09-19T07:08:01;16.70;99.90
46440;DHT22;32138;50.966;6.968;2023-09-19T07:09:32;16.70;99.90
46440;DHT22;32138;50.966;6.968;2023-09-19T07:11:03;16.60;99.90
46440;DHT22;32138;50.966;6.968;2023-09-19T07:12:36;16.60;99.90
46440;DHT22;32138;50.966;6.968;2023-09-19T07:14:07;16.60;99.90
46440;DHT22;32138;50.966;6.968;2023-09-19T07:15:39;16.60;99.90
46440;DHT22;32138;50.966;6.968;2023-09-19T07:17:11;16.70;99.90
46440;DHT22;32138;50.966;6.968;2023-09-19T07:18:42;16.70;99.90
46440;DHT22;32138;50.966;6.968;2023-09-19T07:20:14;16.70;99.90
46440;DHT22;32138;50.966;6.968;2023-09-19T07:21:46;16.70;99.90
46440;DHT22;32138;50.966;6.968;2023-09-19T07:23:21;16.80;99.90
46440;DHT22;32138;50.966;6.968;2023-09-19T07:24:53;16.70;99.90
46440;DHT22;32138;50.966;6.968;2023-09-19T07:26:24;16.70;99.90
46440;DHT22;32138;50.966;6.968;2023-09-19T07:27:56;16.50;99.90
46440;DHT22;32138;50.966;6.968;2023-09-19T07:29:30;16.60;99.90
46440;DHT22;32138;50.966;6.968;2023-09-19T07:31:03;16.80;99.90
46440;DHT22;32138;50.966;6.968;2023-09-19T07:32:35;16.80;99.90
46440;DHT22;32138;50.966;6.968;2023-09-19T07:34:09;16.80;99.90
46440;DHT22;32138;50.966;6.968;2023-09-19T07:35:44;16.90;99.90
46440;DHT22;32138;50.966;6.968;2023-09-19T07:37:16;17.00;99.90
46440;DHT22;32138;50.966;6.968;2023-09-19T07:38:47;17.10;99.90
46440;DHT22;32138;50.966;6.968;2023-09-19T07:40:19;17.00;99.90
46440;DHT22;32138;50.966;6.968;2023-09-19T07:41:50;17.10;99.90
46440;DHT22;32138;50.966;6.968;2023-09-19T07:43:21;17.10;99.90
46440;DHT22;32138;50.966;6.968;2023-09-19T07:44:52;17.20;99.90
46440;DHT22;32138;50.966;6.968;2023-09-19T07:46:24;17.20;99.90
46440;DHT22;32138;50.966;6.968;2023-09-19T07:47:56;17.10;99.90
46440;DHT22;32138;50.966;6.968;2023-09-19T07:49:27;17.10;99.90
46440;DHT22;32138;50.966;6.968;2023-09-19T07:51:08;17.20;99.90
46440;DHT22;32138;50.966;6.968;2023-09-19T07:52:39;17.10;99.90
46440;DHT22;32138;50.966;6.968;2023-09-19T07:54:10;17.10;99.90
46440;DHT22;32138;50.966;6.968;2023-09-19T07:55:40;17.20;99.90
46440;DHT22;32138;50.966;6.968;2023-09-19T07:57:11;17.20;99.90
46440;DHT22;32138;50.966;6.968;2023-09-19T07:58:42;17.40;99.90
46440;DHT22;32138;50.966;6.968;2023-09-19T08:00:14;17.30;99.90
46440;DHT22;32138;50.966;6.968;2023-09-19T08:01:45;17.30;99.90
46440;DHT22;32138;50.966;6.968;2023-09-19T08:03:18;17.30;99.90
46440;DHT22;32138;50.966;6.968;2023-09-19T08:04:48;17.30;99.90
46440;DHT22;32138;50.966;6.968;2023-09-19T08:06:19;17.30;99.90
46440;DHT22;32138;50.966;6.968;2023-09-19T08:07:50;17.40;99.90
46440;DHT22;32138;50.966;6.968;2023-09-19T08:09:22;17.30;99.90
46440;DHT22;32138;50.966;6.968;2023-09-19T08:10:54;17.30;99.90
46440;DHT22;32138;50.966;6.968;2023-09-19T08:12:29;17.50;99.90
46440;DHT22;32138;50.966;6.968;2023-09-19T08:14:00;17.40;99.90
46440;DHT22;32138;50.966;6.968;2023-09-19T08:15:31;17.50;99.90
46440;DHT22;32138;50.966;6.968;2023-09-19T08:17:02;17.60;99.90
46440;DHT22;32138;50.966;6.968;2023-09-19T08:18:32;17.70;99.90
46440;DHT22;32138;50.966;6.968;2023-09-19T08:20:04;17.70;99.90
46440;DHT22;32138;50.966;6.968;2023-09-19T08:21:35;17.80;99.90
46440;DHT22;32138;50.966;6.968;2023-09-19T08:23:06;17.80;99.90
46440;DHT22;32138;50.966;6.968;2023-09-19T08:24:38;17.90;99.90
46440;DHT22;32138;50.966;6.968;2023-09-19T08:26:09;18.10;99.90
46440;DHT22;32138;50.966;6.968;2023-09-19T08:27:40;18.20;99.90
46440;DHT22;32138;50.966;6.968;2023-09-19T08:29:10;18.00;99.90
46440;DHT22;32138;50.966;6.968;2023-09-19T08:30:42;17.90;99.90
46440;DHT22;32138;50.966;6.968;2023-09-19T08:32:13;17.80;99.90
46440;DHT22;32138;50.966;6.968;2023-09-19T08:33:45;17.90;99.90
46440;DHT22;32138;50.966;6.968;2023-09-19T08:35:19;18.10;99.90
46440;DHT22;32138;50.966;6.968;2023-09-19T08:36:54;18.10;99.90
46440;DHT22;32138;50.966;6.968;2023-09-19T08:38:28;18.10;99.90
46440;DHT22;32138;50.966;6.968;2023-09-19T08:40:00;18.20;99.90
46440;DHT22;32138;50.966;6.968;2023-09-19T08:41:30;18.00;99.90
46440;DHT22;32138;50.966;6.968;2023-09-19T08:43:01;18.10;99.90
46440;DHT22;32138;50.966;6.968;2023-09-19T08:44:36;18.30;99.90
46440;DHT22;32138;50.966;6.968;2023-09-19T08:46:16;18.30;99.90
46440;DHT22;32138;50.966;6.968;2023-09-19T08:49:40;18.40;99.90
46440;DHT22;32138;50.966;6.968;2023-09-19T08:51:39;18.60;99.90
46440;DHT22;32138;50.966;6.968;2023-09-19T08:53:19;18.50;99.90
46440;DHT22;32138;50.966;6.968;2023-09-19T08:54:59;18.50;99.90
46440;DHT22;32138;50.966;6.968;2023-09-19T08:56:35;18.50;99.90
46440;DHT22;32138;50.966;6.968;2023-09-19T08:58:10;18.60;99.90
46440;DHT22;32138;50.966;6.968;2023-09-19T08:59:44;18.50;99.90
46440;DHT22;32138;50.966;6.968;2023-09-19T09:01:18;18.50;99.90
46440;DHT22;32138;50.966;6.968;2023-09-19T09:02:56;18.60;99.90
46440;DHT22;32138;50.966;6.968;2023-09-19T09:04:28;18.40;99.90
46440;DHT22;32138;50.966;6.968;2023-09-19T09:05:59;18.50;99.90
46440;DHT22;32138;50.966;6.968;2023-09-19T09:07:30;18.60;99.90
46440;DHT22;32138;50.966;6.968;2023-09-19T09:09:01;18.50;99.90
46440;DHT22;32138;50.966;6.968;2023-09-19T09:10:34;18.50;99.90
46440;DHT22;32138;50.966;6.968;2023-09-19T09:12:05;18.40;99.90
46440;DHT22;32138;50.966;6.968;2023-09-19T09:13:37;18.50;99.90
46440;DHT22;32138;50.966;6.968;2023-09-19T09:15:11;18.70;99.90
46440;DHT22;32138;50.966;6.968;2023-09-19T09:16:46;18.80;99.90
46440;DHT22;32138;50.966;6.968;2023-09-19T09:18:19;18.80;99.90
46440;DHT22;32138;50.966;6.968;2023-09-19T09:19:53;18.90;99.90
46440;DHT22;32138;50.966;6.968;2023-09-19T09:21:25;19.00;99.90
46440;DHT22;32138;50.966;6.968;2023-09-19T09:22:57;19.10;99.90
46440;DHT22;32138;50.966;6.968;2023-09-19T09:24:34;19.10;99.10
46440;DHT22;32138;50.966;6.968;2023-09-19T09:26:06;19.00;98.70
46440;DHT22;32138;50.966;6.968;2023-09-19T09:27:40;19.00;99.00
46440;DHT22;32138;50.966;6.968;2023-09-19T09:29:11;19.00;98.50
46440;DHT22;32138;50.966;6.968;2023-09-19T09:30:42;19.00;98.70
46440;DHT22;32138;50.966;6.968;2023-09-19T09:33:56;19.00;98.50
46440;DHT22;32138;50.966;6.968;2023-09-19T09:35:28;19.10;98.80
46440;DHT22;32138;50.966;6.968;2023-09-19T09:36:59;19.30;98.80
46440;DHT22;32138;50.966;6.968;2023-09-19T09:38:43;19.40;98.00
46440;DHT22;32138;50.966;6.968;2023-09-19T09:40:16;19.40;97.90
46440;DHT22;32138;50.966;6.968;2023-09-19T09:41:47;19.40;97.90
46440;DHT22;32138;50.966;6.968;2023-09-19T09:43:28;19.50;97.60
46440;DHT22;32138;50.966;6.968;2023-09-19T09:45:23;19.60;97.40
46440;DHT22;32138;50.966;6.968;2023-09-19T09:47:03;19.50;96.90
46440;DHT22;32138;50.966;6.968;2023-09-19T09:49:03;19.60;97.10
46440;DHT22;32138;50.966;6.968;2023-09-19T09:50:49;19.70;96.80
46440;DHT22;32138;50.966;6.968;2023-09-19T09:52:26;19.70;96.10
46440;DHT22;32138;50.966;6.968;2023-09-19T09:54:14;19.70;95.90
46440;DHT22;32138;50.966;6.968;2023-09-19T09:56:08;19.70;96.30
46440;DHT22;32138;50.966;6.968;2023-09-19T09:57:44;19.60;96.00
46440;DHT22;32138;50.966;6.968;2023-09-19T09:59:15;19.20;95.90
46440;DHT22;32138;50.966;6.968;2023-09-19T10:00:58;19.20;96.30
46440;DHT22;32138;50.966;6.968;2023-09-19T10:02:35;19.30;96.00
46440;DHT22;32138;50.966;6.968;2023-09-19T10:04:11;19.40;95.80
46440;DHT22;32138;50.966;6.968;2023-09-19T10:05:44;19.40;96.00